Time;durP1;ratioP1;P1;durP2;ratioP2;P2;SDS_P1;SDS_P2;PMS_P1;PMS_P2;Temp;Humidity;BMP_temperature;BMP_pressure;BME280_temperature;BME280_humidity;BME280_pressure;Samples;Min_cycle;Max_cycle;Signal;HPM_P1;HPM_P2
2022/07/13 00:01:50;;;;;;;;;;;27.90;45.10;;;;;;5078692;28;933;-39
2022/07/13 00:04:17;;;;;;;;;;;27.90;45.20;;;;;;5076004;28;1147;-39
2022/07/13 00:06:43;;;;;;;;;;;27.90;45.20;;;;;;5078916;28;981;-39
2022/07/13 00:09:12;;;;;;;;;;;27.90;45.20;;;;;;5078744;28;1012;-39
2022/07/13 00:11:38;;;;;;;;;;;27.80;45.20;;;;;;5077882;28;1905;-40
2022/07/13 00:14:05;;;;;;;;;;;27.90;45.10;;;;;;5078492;28;1034;-40
2022/07/13 00:16:32;;;;;;;;;;;27.90;45.00;;;;;;5078628;28;1016;-40
2022/07/13 00:18:59;;;;;;;;;;;27.80;45.10;;;;;;5078308;28;981;-40
2022/07/13 00:21:26;;;;;;;;;;;27.90;45.10;;;;;;5078627;28;940;-40
2022/07/13 00:23:53;;;;;;;;;;;27.90;45.00;;;;;;5078056;28;1008;-39
2022/07/13 00:26:21;;;;;;;;;;;27.90;45.00;;;;;;5078837;28;969;-39
2022/07/13 00:28:47;;;;;;;;;;;27.80;45.00;;;;;;5078646;28;1012;-39
2022/07/13 00:31:14;;;;;;;;;;;27.90;44.90;;;;;;5078482;28;1972;-38
2022/07/13 00:33:41;;;;;;;;;;;27.90;44.80;;;;;;5078023;28;1053;-39
2022/07/13 00:36:07;;;;;;;;;;;27.90;44.90;;;;;;5078154;28;940;-39
2022/07/13 00:38:35;;;;;;;;;;;27.80;45.00;;;;;;5076741;28;964;-39
2022/07/13 00:41:04;;;;;;;;;;;27.80;45.00;;;;;;5077383;28;1032;-39
2022/07/13 00:43:32;;;;;;;;;;;27.80;44.90;;;;;;5078509;28;1057;-39
2022/07/13 00:45:59;;;;;;;;;;;27.80;45.00;;;;;;5078295;28;991;-39
2022/07/13 00:48:26;;;;;;;;;;;27.80;45.00;;;;;;5076919;28;1019;-39
2022/07/13 00:50:52;;;;;;;;;;;27.80;45.00;;;;;;5077564;28;1993;-39
2022/07/13 00:53:19;;;;;;;;;;;27.70;44.90;;;;;;5077203;28;2014;-41
2022/07/13 00:55:47;;;;;;;;;;;27.80;45.10;;;;;;5077558;28;1000;-40
2022/07/13 00:58:14;;;;;;;;;;;27.80;44.90;;;;;;5077053;28;1070;-39
2022/07/13 01:00:42;;;;;;;;;;;27.80;45.00;;;;;;5077187;28;1003;-40
2022/07/13 01:03:09;;;;;;;;;;;27.80;45.00;;;;;;5077090;28;1123;-41
2022/07/13 01:05:35;;;;;;;;;;;27.80;44.90;;;;;;5077607;28;977;-39
2022/07/13 01:08:03;;;;;;;;;;;27.80;45.00;;;;;;5077185;28;980;-40
2022/07/13 01:10:30;;;;;;;;;;;27.80;45.00;;;;;;5077485;28;942;-39
2022/07/13 01:12:57;;;;;;;;;;;27.80;45.00;;;;;;5076891;28;1910;-41
2022/07/13 01:15:23;;;;;;;;;;;27.80;45.00;;;;;;5077012;28;988;-39
2022/07/13 01:17:51;;;;;;;;;;;27.70;45.00;;;;;;5076965;28;976;-39
2022/07/13 01:20:18;;;;;;;;;;;27.80;44.80;;;;;;5076965;28;1006;-39
2022/07/13 01:22:46;;;;;;;;;;;27.80;44.80;;;;;;5078064;28;1078;-38
2022/07/13 01:25:15;;;;;;;;;;;27.80;44.90;;;;;;5078041;28;1029;-39
2022/07/13 01:27:43;;;;;;;;;;;27.80;44.70;;;;;;5077843;28;1008;-38
2022/07/13 01:30:10;;;;;;;;;;;27.80;44.60;;;;;;5077986;28;945;-39
2022/07/13 01:32:44;;;;;;;;;;;27.80;44.60;;;;;;5081650;28;1914;-39
2022/07/13 01:35:11;;;;;;;;;;;27.80;44.70;;;;;;5082210;28;1022;-39
2022/07/13 01:37:38;;;;;;;;;;;27.80;44.80;;;;;;5082290;28;956;-38
2022/07/13 01:40:05;;;;;;;;;;;27.70;44.90;;;;;;5081864;28;989;-38
2022/07/13 01:42:33;;;;;;;;;;;27.70;44.70;;;;;;5081731;28;962;-39
2022/07/13 01:45:00;;;;;;;;;;;27.70;44.60;;;;;;5081712;28;949;-38
2022/07/13 01:47:27;;;;;;;;;;;27.70;44.60;;;;;;5081793;28;1055;-38
2022/07/13 01:49:53;;;;;;;;;;;27.80;44.60;;;;;;5081404;28;940;-39
2022/07/13 01:52:20;;;;;;;;;;;27.70;44.50;;;;;;5081294;28;1901;-39
2022/07/13 01:54:47;;;;;;;;;;;27.80;44.60;;;;;;5081646;28;933;-39
2022/07/13 01:57:14;;;;;;;;;;;27.70;44.50;;;;;;5081410;28;1023;-39
2022/07/13 01:59:42;;;;;;;;;;;27.70;44.50;;;;;;5081112;28;1008;-38
2022/07/13 02:02:08;;;;;;;;;;;27.80;44.40;;;;;;5081151;28;1185;-38
2022/07/13 02:04:36;;;;;;;;;;;27.80;44.50;;;;;;5081228;28;941;-39
2022/07/13 02:07:02;;;;;;;;;;;27.80;44.40;;;;;;5081287;28;1039;-39
2022/07/13 02:09:29;;;;;;;;;;;27.80;44.40;;;;;;5081079;28;936;-39
2022/07/13 02:11:56;;;;;;;;;;;27.70;44.30;;;;;;5081215;28;1985;-38
2022/07/13 02:14:23;;;;;;;;;;;27.70;44.40;;;;;;5081165;28;920;-38
2022/07/13 02:16:51;;;;;;;;;;;27.80;44.30;;;;;;5081169;28;947;-38
2022/07/13 02:19:19;;;;;;;;;;;27.80;44.40;;;;;;5081144;28;966;-39
2022/07/13 02:21:46;;;;;;;;;;;27.90;44.20;;;;;;5080853;28;957;-39
2022/07/13 02:24:12;;;;;;;;;;;27.80;45.30;;;;;;5081202;28;994;-39
2022/07/13 02:26:39;;;;;;;;;;;27.80;44.40;;;;;;5081152;28;1019;-39
2022/07/13 02:29:06;;;;;;;;;;;27.70;44.30;;;;;;5080983;28;1025;-39
2022/07/13 02:31:34;;;;;;;;;;;27.70;44.40;;;;;;5080582;28;1898;-39
2022/07/13 02:37:16;;;;;;;;;;;27.70;44.40;;;;;;5080419;28;590;-39
2022/07/13 02:39:42;;;;;;;;;;;27.70;44.40;;;;;;5081064;28;1035;-38
2022/07/13 02:42:09;;;;;;;;;;;27.70;44.40;;;;;;5079678;28;921;-38
2022/07/13 02:44:36;;;;;;;;;;;27.70;44.40;;;;;;5080213;28;985;-39
2022/07/13 02:47:03;;;;;;;;;;;27.70;44.10;;;;;;5080087;28;1012;-39
2022/07/13 02:49:29;;;;;;;;;;;27.70;44.20;;;;;;5080326;28;1073;-39
2022/07/13 02:51:56;;;;;;;;;;;27.70;44.20;;;;;;5080265;28;1973;-39
2022/07/13 02:54:24;;;;;;;;;;;27.80;43.90;;;;;;5080167;28;984;-38
2022/07/13 02:56:51;;;;;;;;;;;27.70;44.00;;;;;;5080422;28;996;-40
2022/07/13 02:59:18;;;;;;;;;;;27.60;44.20;;;;;;5080384;28;988;-40
2022/07/13 03:01:44;;;;;;;;;;;27.60;44.30;;;;;;5079822;28;975;-39
2022/07/13 03:04:11;;;;;;;;;;;27.60;44.30;;;;;;5079813;28;1035;-39
2022/07/13 03:06:38;;;;;;;;;;;27.60;44.30;;;;;;5080576;28;968;-39
2022/07/13 03:09:05;;;;;;;;;;;27.60;44.40;;;;;;5080315;28;1651;-41
2022/07/13 03:11:33;;;;;;;;;;;27.70;44.10;;;;;;5079693;28;947;-40
2022/07/13 03:14:01;;;;;;;;;;;27.70;44.10;;;;;;5080499;28;1032;-40
2022/07/13 03:16:28;;;;;;;;;;;27.70;44.20;;;;;;5080059;28;931;-39
2022/07/13 03:18:55;;;;;;;;;;;27.70;44.00;;;;;;5079773;28;923;-39
2022/07/13 03:21:22;;;;;;;;;;;27.70;44.20;;;;;;5079593;28;964;-39
2022/07/13 03:23:49;;;;;;;;;;;27.60;44.20;;;;;;5079602;28;1002;-39
2022/07/13 03:26:15;;;;;;;;;;;27.60;44.10;;;;;;5079733;28;945;-39
2022/07/13 03:28:43;;;;;;;;;;;27.60;44.20;;;;;;5079750;28;1020;-40
2022/07/13 03:31:10;;;;;;;;;;;27.70;44.10;;;;;;5078434;28;927;-41
2022/07/13 03:33:37;;;;;;;;;;;27.70;43.90;;;;;;5079123;28;1977;-39
2022/07/13 03:36:04;;;;;;;;;;;27.70;44.10;;;;;;5079104;28;972;-39
2022/07/13 03:38:31;;;;;;;;;;;27.60;44.20;;;;;;5079282;28;1015;-40
2022/07/13 03:40:58;;;;;;;;;;;27.60;44.00;;;;;;5079284;28;1008;-40
2022/07/13 03:43:24;;;;;;;;;;;27.50;44.20;;;;;;5078318;28;1025;-39
2022/07/13 03:45:53;;;;;;;;;;;27.60;44.20;;;;;;5079097;28;920;-38
2022/07/13 03:48:19;;;;;;;;;;;27.60;44.10;;;;;;5078784;28;940;-39
2022/07/13 03:50:46;;;;;;;;;;;27.50;44.30;;;;;;5078954;28;1003;-39
2022/07/13 03:53:13;;;;;;;;;;;27.60;44.20;;;;;;5078876;28;1979;-39
2022/07/13 03:55:40;;;;;;;;;;;27.70;44.20;;;;;;5077934;28;954;-39
2022/07/13 03:58:07;;;;;;;;;;;27.60;44.10;;;;;;5079027;28;1081;-39
2022/07/13 04:00:33;;;;;;;;;;;27.60;44.30;;;;;;5078877;28;984;-39
2022/07/13 04:03:01;;;;;;;;;;;27.60;44.30;;;;;;5078239;28;1161;-39
2022/07/13 04:05:28;;;;;;;;;;;27.60;44.30;;;;;;5078620;28;948;-38
2022/07/13 04:07:55;;;;;;;;;;;27.60;44.30;;;;;;5078804;28;980;-39
2022/07/13 04:10:22;;;;;;;;;;;27.60;44.30;;;;;;5078742;28;1487;-38
2022/07/13 04:12:49;;;;;;;;;;;27.60;44.20;;;;;;5078087;28;1898;-38
2022/07/13 04:15:16;;;;;;;;;;;27.60;44.30;;;;;;5078704;28;940;-38
2022/07/13 04:17:44;;;;;;;;;;;27.60;44.40;;;;;;5078933;28;961;-38
2022/07/13 04:20:12;;;;;;;;;;;27.60;44.40;;;;;;5078411;28;909;-39
2022/07/13 04:22:39;;;;;;;;;;;27.60;44.70;;;;;;5078052;28;985;-39
2022/07/13 04:25:06;;;;;;;;;;;27.50;44.60;;;;;;5078960;28;932;-38
2022/07/13 04:27:32;;;;;;;;;;;27.60;44.60;;;;;;5078033;28;948;-38
2022/07/13 04:29:59;;;;;;;;;;;27.60;44.50;;;;;;5077496;28;901;-38
2022/07/13 04:32:26;;;;;;;;;;;27.70;44.60;;;;;;5077888;28;1963;-37
2022/07/13 04:34:52;;;;;;;;;;;27.70;44.50;;;;;;5077719;28;1011;-39
2022/07/13 04:37:20;;;;;;;;;;;27.70;44.60;;;;;;5077720;28;937;-40
2022/07/13 04:39:47;;;;;;;;;;;27.60;44.60;;;;;;5077912;28;1039;-39
2022/07/13 04:42:14;;;;;;;;;;;27.70;44.60;;;;;;5078528;28;910;-39
2022/07/13 04:44:41;;;;;;;;;;;27.70;44.60;;;;;;5078550;28;1006;-38
2022/07/13 04:47:07;;;;;;;;;;;27.70;44.80;;;;;;5078071;28;924;-38
2022/07/13 04:49:34;;;;;;;;;;;27.70;44.70;;;;;;5077564;28;1011;-42
2022/07/13 04:52:01;;;;;;;;;;;27.70;44.80;;;;;;5078134;28;861;-39
2022/07/13 04:54:29;;;;;;;;;;;27.70;44.80;;;;;;5077814;28;1902;-39
2022/07/13 04:56:57;;;;;;;;;;;27.70;44.90;;;;;;5077781;28;984;-39
2022/07/13 04:59:24;;;;;;;;;;;27.70;45.00;;;;;;5077798;28;961;-39
2022/07/13 05:01:51;;;;;;;;;;;27.70;45.20;;;;;;5075323;28;995;-39
2022/07/13 05:04:17;;;;;;;;;;;27.60;45.20;;;;;;5076418;28;1118;-38
2022/07/13 05:06:44;;;;;;;;;;;27.60;45.60;;;;;;5076598;28;1021;-38
2022/07/13 05:09:11;;;;;;;;;;;27.60;45.50;;;;;;5077604;28;1015;-39
2022/07/13 05:11:40;;;;;;;;;;;27.70;45.70;;;;;;5076894;28;941;-39
2022/07/13 05:14:07;;;;;;;;;;;27.70;45.60;;;;;;5076869;28;1897;-38
2022/07/13 05:16:33;;;;;;;;;;;27.70;45.40;;;;;;5077357;28;953;-38
2022/07/13 05:19:01;;;;;;;;;;;27.70;45.50;;;;;;5077797;28;972;-40
2022/07/13 05:21:28;;;;;;;;;;;27.80;45.40;;;;;;5076368;28;947;-40
2022/07/13 05:23:55;;;;;;;;;;;27.80;45.40;;;;;;5076517;28;952;-41
2022/07/13 05:26:21;;;;;;;;;;;27.80;45.40;;;;;;5075679;28;1012;-41
2022/07/13 05:28:49;;;;;;;;;;;27.70;45.60;;;;;;5076090;28;967;-41
2022/07/13 05:31:16;;;;;;;;;;;27.70;45.60;;;;;;5076640;28;975;-40
2022/07/13 05:33:43;;;;;;;;;;;27.70;45.70;;;;;;5076337;28;1898;-41
2022/07/13 05:36:09;;;;;;;;;;;27.70;45.70;;;;;;5075568;28;788;-40
2022/07/13 05:38:36;;;;;;;;;;;27.70;45.50;;;;;;5075913;28;1022;-41
2022/07/13 05:41:03;;;;;;;;;;;27.70;45.50;;;;;;5076271;28;933;-42
2022/07/13 05:43:30;;;;;;;;;;;27.80;45.40;;;;;;5074841;28;985;-40
2022/07/13 05:45:58;;;;;;;;;;;27.50;45.60;;;;;;5075270;28;1020;-42
2022/07/13 05:48:25;;;;;;;;;;;27.60;45.90;;;;;;5075776;28;952;-40
2022/07/13 05:50:52;;;;;;;;;;;27.40;45.90;;;;;;5075564;28;965;-41
2022/07/13 05:53:19;;;;;;;;;;;27.40;46.00;;;;;;5075263;28;1981;-41
2022/07/13 05:55:46;;;;;;;;;;;27.30;46.10;;;;;;5075240;28;949;-41
2022/07/13 05:58:13;;;;;;;;;;;27.30;46.00;;;;;;5074827;28;889;-40
2022/07/13 06:00:39;;;;;;;;;;;27.30;46.00;;;;;;5073446;28;991;-41
2022/07/13 06:03:07;;;;;;;;;;;27.30;46.00;;;;;;5075062;28;1131;-41
2022/07/13 06:05:34;;;;;;;;;;;27.50;45.70;;;;;;5074882;28;908;-40
2022/07/13 06:08:01;;;;;;;;;;;27.60;45.70;;;;;;5073263;28;925;-40
2022/07/13 06:10:27;;;;;;;;;;;27.70;45.70;;;;;;5072475;28;941;-43
2022/07/13 06:12:54;;;;;;;;;;;27.70;45.40;;;;;;5072247;28;1969;-41
2022/07/13 06:15:21;;;;;;;;;;;27.70;45.40;;;;;;5071817;28;1008;-41
2022/07/13 06:17:48;;;;;;;;;;;27.90;45.10;;;;;;5073863;28;999;-41
2022/07/13 06:20:16;;;;;;;;;;;27.80;45.20;;;;;;5076729;28;940;-39
2022/07/13 06:22:43;;;;;;;;;;;27.90;45.30;;;;;;5076656;28;995;-39
2022/07/13 06:25:10;;;;;;;;;;;27.80;45.10;;;;;;5076913;28;853;-40
2022/07/13 06:27:36;;;;;;;;;;;27.70;45.80;;;;;;5074520;28;1273;-40
2022/07/13 06:30:03;;;;;;;;;;;27.60;45.80;;;;;;5076258;28;1019;-41
2022/07/13 06:32:30;;;;;;;;;;;27.60;46.00;;;;;;5076952;28;975;-41
2022/07/13 06:34:57;;;;;;;;;;;27.70;45.60;;;;;;5076443;28;1901;-38
